sensor_id;sensor_type;location;lat;lon;timestamp;temperature;humidity
22426;DHT22;11380;50.822;15.790;2022-11-11T00:04:18;3.20;1.00
22426;DHT22;11380;50.822;15.790;2022-11-11T00:09:24;3.10;91.70
22426;DHT22;11380;50.822;15.790;2022-11-11T00:14:29;2.80;99.90
22426;DHT22;11380;50.822;15.790;2022-11-11T00:19:34;3.20;99.90
22426;DHT22;11380;50.822;15.790;2022-11-11T00:24:57;3.30;99.90
22426;DHT22;11380;50.822;15.790;2022-11-11T00:30:12;3.40;99.90
22426;DHT22;11380;50.822;15.790;2022-11-11T00:35:17;3.70;99.90
22426;DHT22;11380;50.822;15.790;2022-11-11T00:40:41;3.10;99.90
22426;DHT22;11380;50.822;15.790;2022-11-11T00:45:46;3.50;99.90
22426;DHT22;11380;50.822;15.790;2022-11-11T00:50:52;3.70;99.90
22426;DHT22;11380;50.822;15.790;2022-11-11T00:56:02;4.30;99.90
22426;DHT22;11380;50.822;15.790;2022-11-11T01:01:08;4.10;99.90
22426;DHT22;11380;50.822;15.790;2022-11-11T01:06:14;4.20;99.90
22426;DHT22;11380;50.822;15.790;2022-11-11T01:11:21;3.90;99.90
22426;DHT22;11380;50.822;15.790;2022-11-11T01:16:28;4.00;99.90
22426;DHT22;11380;50.822;15.790;2022-11-11T01:21:33;3.70;99.90
22426;DHT22;11380;50.822;15.790;2022-11-11T01:26:39;3.30;99.90
22426;DHT22;11380;50.822;15.790;2022-11-11T01:31:44;3.40;99.90
22426;DHT22;11380;50.822;15.790;2022-11-11T01:36:50;3.30;12.10
22426;DHT22;11380;50.822;15.790;2022-11-11T01:41:55;2.90;1.00
22426;DHT22;11380;50.822;15.790;2022-11-11T01:47:03;3.00;99.90
22426;DHT22;11380;50.822;15.790;2022-11-11T01:57:53;2.70;99.90
22426;DHT22;11380;50.822;15.790;2022-11-11T02:03:05;3.30;99.90
22426;DHT22;11380;50.822;15.790;2022-11-11T02:08:20;3.40;99.90
22426;DHT22;11380;50.822;15.790;2022-11-11T02:13:40;3.40;99.90
22426;DHT22;11380;50.822;15.790;2022-11-11T02:19:04;3.50;99.90
22426;DHT22;11380;50.822;15.790;2022-11-11T02:24:12;3.70;99.90
22426;DHT22;11380;50.822;15.790;2022-11-11T02:29:19;4.10;99.90
22426;DHT22;11380;50.822;15.790;2022-11-11T02:34:33;4.10;99.90
22426;DHT22;11380;50.822;15.790;2022-11-11T02:39:44;3.30;99.90
22426;DHT22;11380;50.822;15.790;2022-11-11T02:44:51;3.30;99.90
22426;DHT22;11380;50.822;15.790;2022-11-11T02:49:59;3.60;99.90
22426;DHT22;11380;50.822;15.790;2022-11-11T02:55:05;3.60;99.90
22426;DHT22;11380;50.822;15.790;2022-11-11T03:00:10;3.30;99.90
22426;DHT22;11380;50.822;15.790;2022-11-11T03:05:16;3.10;99.90
22426;DHT22;11380;50.822;15.790;2022-11-11T03:10:21;2.90;99.90
22426;DHT22;11380;50.822;15.790;2022-11-11T03:15:26;3.10;99.90
22426;DHT22;11380;50.822;15.790;2022-11-11T03:20:32;3.40;99.90
22426;DHT22;11380;50.822;15.790;2022-11-11T03:25:55;3.20;99.90
22426;DHT22;11380;50.822;15.790;2022-11-11T03:31:01;3.20;99.90
22426;DHT22;11380;50.822;15.790;2022-11-11T03:36:08;2.90;99.90
22426;DHT22;11380;50.822;15.790;2022-11-11T03:41:13;3.10;99.90
22426;DHT22;11380;50.822;15.790;2022-11-11T03:46:18;3.50;99.90
22426;DHT22;11380;50.822;15.790;2022-11-11T03:51:23;3.80;99.90
22426;DHT22;11380;50.822;15.790;2022-11-11T03:56:28;3.50;99.90
22426;DHT22;11380;50.822;15.790;2022-11-11T04:01:33;3.00;99.90
22426;DHT22;11380;50.822;15.790;2022-11-11T04:06:57;3.10;99.90
22426;DHT22;11380;50.822;15.790;2022-11-11T04:12:21;3.30;99.90
22426;DHT22;11380;50.822;15.790;2022-11-11T04:17:26;3.40;99.90
22426;DHT22;11380;50.822;15.790;2022-11-11T04:22:30;3.30;99.90
22426;DHT22;11380;50.822;15.790;2022-11-11T04:27:35;3.50;99.90
22426;DHT22;11380;50.822;15.790;2022-11-11T04:32:43;3.10;99.90
22426;DHT22;11380;50.822;15.790;2022-11-11T04:37:49;3.30;99.90
22426;DHT22;11380;50.822;15.790;2022-11-11T04:42:55;3.20;99.90
22426;DHT22;11380;50.822;15.790;2022-11-11T04:48:02;3.10;99.90
22426;DHT22;11380;50.822;15.790;2022-11-11T04:53:14;3.20;99.90
22426;DHT22;11380;50.822;15.790;2022-11-11T04:58:17;3.00;99.90
22426;DHT22;11380;50.822;15.790;2022-11-11T05:03:23;2.80;99.90
22426;DHT22;11380;50.822;15.790;2022-11-11T05:08:28;3.00;99.90
22426;DHT22;11380;50.822;15.790;2022-11-11T05:13:53;3.00;99.90
22426;DHT22;11380;50.822;15.790;2022-11-11T05:19:17;3.10;99.90
22426;DHT22;11380;50.822;15.790;2022-11-11T05:24:40;2.80;99.90
22426;DHT22;11380;50.822;15.790;2022-11-11T05:30:05;3.10;99.90
22426;DHT22;11380;50.822;15.790;2022-11-11T05:35:12;3.20;99.90
22426;DHT22;11380;50.822;15.790;2022-11-11T05:40:18;2.70;99.90
22426;DHT22;11380;50.822;15.790;2022-11-11T05:45:23;2.90;99.90
22426;DHT22;11380;50.822;15.790;2022-11-11T05:50:30;3.00;99.90
22426;DHT22;11380;50.822;15.790;2022-11-11T05:55:35;2.70;99.90
22426;DHT22;11380;50.822;15.790;2022-11-11T06:00:40;2.90;99.90
22426;DHT22;11380;50.822;15.790;2022-11-11T06:05:45;3.50;99.90
22426;DHT22;11380;50.822;15.790;2022-11-11T06:10:50;3.40;99.90
22426;DHT22;11380;50.822;15.790;2022-11-11T06:15:57;3.40;99.90
22426;DHT22;11380;50.822;15.790;2022-11-11T06:21:03;3.20;99.90
22426;DHT22;11380;50.822;15.790;2022-11-11T06:26:15;3.20;99.90
22426;DHT22;11380;50.822;15.790;2022-11-11T06:31:19;3.30;99.90
22426;DHT22;11380;50.822;15.790;2022-11-11T06:36:24;3.40;99.90
22426;DHT22;11380;50.822;15.790;2022-11-11T06:41:29;3.40;99.90
22426;DHT22;11380;50.822;15.790;2022-11-11T06:46:35;3.50;99.90
22426;DHT22;11380;50.822;15.790;2022-11-11T06:51:40;3.60;99.90
22426;DHT22;11380;50.822;15.790;2022-11-11T06:56:47;3.80;99.90
22426;DHT22;11380;50.822;15.790;2022-11-11T07:01:52;3.80;99.90
22426;DHT22;11380;50.822;15.790;2022-11-11T07:06:57;3.90;99.90
22426;DHT22;11380;50.822;15.790;2022-11-11T07:12:03;4.00;99.90
22426;DHT22;11380;50.822;15.790;2022-11-11T07:17:11;3.80;99.90
22426;DHT22;11380;50.822;15.790;2022-11-11T07:22:17;3.80;99.90
22426;DHT22;11380;50.822;15.790;2022-11-11T07:27:22;3.90;99.90
22426;DHT22;11380;50.822;15.790;2022-11-11T07:32:27;4.10;99.90
22426;DHT22;11380;50.822;15.790;2022-11-11T07:37:32;4.20;99.90
22426;DHT22;11380;50.822;15.790;2022-11-11T07:42:39;4.50;99.90
22426;DHT22;11380;50.822;15.790;2022-11-11T07:47:44;4.60;99.90
22426;DHT22;11380;50.822;15.790;2022-11-11T07:52:50;4.60;99.90
22426;DHT22;11380;50.822;15.790;2022-11-11T07:57:57;4.60;99.90
22426;DHT22;11380;50.822;15.790;2022-11-11T08:03:02;4.80;99.90
22426;DHT22;11380;50.822;15.790;2022-11-11T08:08:12;4.90;99.90
22426;DHT22;11380;50.822;15.790;2022-11-11T08:13:17;5.00;99.90
22426;DHT22;11380;50.822;15.790;2022-11-11T08:18:40;5.30;99.90
22426;DHT22;11380;50.822;15.790;2022-11-11T08:23:46;5.40;99.90
22426;DHT22;11380;50.822;15.790;2022-11-11T08:28:53;5.60;99.90
22426;DHT22;11380;50.822;15.790;2022-11-11T08:33:59;5.80;99.90
22426;DHT22;11380;50.822;15.790;2022-11-11T08:39:05;6.10;99.90
22426;DHT22;11380;50.822;15.790;2022-11-11T08:44:11;6.20;99.90
22426;DHT22;11380;50.822;15.790;2022-11-11T08:49:18;6.40;99.90
22426;DHT22;11380;50.822;15.790;2022-11-11T08:54:23;6.70;99.90
22426;DHT22;11380;50.822;15.790;2022-11-11T08:59:30;6.70;99.90
22426;DHT22;11380;50.822;15.790;2022-11-11T09:04:35;6.80;99.90
22426;DHT22;11380;50.822;15.790;2022-11-11T09:09:43;6.90;99.90
22426;DHT22;11380;50.822;15.790;2022-11-11T09:14:49;7.00;99.90
22426;DHT22;11380;50.822;15.790;2022-11-11T09:19:54;7.20;99.90
22426;DHT22;11380;50.822;15.790;2022-11-11T09:24:59;7.30;99.90
22426;DHT22;11380;50.822;15.790;2022-11-11T09:30:07;7.50;99.90
22426;DHT22;11380;50.822;15.790;2022-11-11T09:35:12;7.80;99.90
22426;DHT22;11380;50.822;15.790;2022-11-11T09:40:20;8.00;99.90
22426;DHT22;11380;50.822;15.790;2022-11-11T09:50:53;8.20;99.90
22426;DHT22;11380;50.822;15.790;2022-11-11T09:56:04;8.40;99.90
22426;DHT22;11380;50.822;15.790;2022-11-11T10:01:14;8.70;99.90
22426;DHT22;11380;50.822;15.790;2022-11-11T10:06:29;8.70;99.90
22426;DHT22;11380;50.822;15.790;2022-11-11T10:17:32;9.10;99.90
22426;DHT22;11380;50.822;15.790;2022-11-11T10:22:41;9.30;99.90
22426;DHT22;11380;50.822;15.790;2022-11-11T10:27:50;9.40;99.90
22426;DHT22;11380;50.822;15.790;2022-11-11T10:33:01;9.50;99.90
22426;DHT22;11380;50.822;15.790;2022-11-11T10:43:23;10.00;99.90
22426;DHT22;11380;50.822;15.790;2022-11-11T10:48:37;10.10;99.90
22426;DHT22;11380;50.822;15.790;2022-11-11T10:53:47;10.50;99.90
22426;DHT22;11380;50.822;15.790;2022-11-11T10:58:59;10.80;99.90
22426;DHT22;11380;50.822;15.790;2022-11-11T11:04:10;10.90;99.90
22426;DHT22;11380;50.822;15.790;2022-11-11T11:09:29;11.20;99.90
22426;DHT22;11380;50.822;15.790;2022-11-11T11:14:46;11.50;99.90
22426;DHT22;11380;50.822;15.790;2022-11-11T11:20:17;11.90;25.30
22426;DHT22;11380;50.822;15.790;2022-11-11T11:25:19;12.40;99.90
22426;DHT22;11380;50.822;15.790;2022-11-11T11:30:26;12.90;1.00
22426;DHT22;11380;50.822;15.790;2022-11-11T11:35:40;12.90;99.90
22426;DHT22;11380;50.822;15.790;2022-11-11T11:40:56;12.90;99.90
22426;DHT22;11380;50.822;15.790;2022-11-11T11:56:47;12.60;99.90
22426;DHT22;11380;50.822;15.790;2022-11-11T12:01:59;12.40;1.00
22426;DHT22;11380;50.822;15.790;2022-11-11T12:07:10;12.40;99.90
22426;DHT22;11380;50.822;15.790;2022-11-11T12:17:39;12.50;99.90
22426;DHT22;11380;50.822;15.790;2022-11-11T12:23:10;12.50;99.90
22426;DHT22;11380;50.822;15.790;2022-11-11T12:33:49;12.60;99.90
22426;DHT22;11380;50.822;15.790;2022-11-11T12:38:57;12.60;51.90
22426;DHT22;11380;50.822;15.790;2022-11-11T12:44:10;12.60;99.90
22426;DHT22;11380;50.822;15.790;2022-11-11T12:55:08;12.70;1.00
22426;DHT22;11380;50.822;15.790;2022-11-11T13:00:19;12.80;1.00
22426;DHT22;11380;50.822;15.790;2022-11-11T13:16:26;12.90;1.00
22426;DHT22;11380;50.822;15.790;2022-11-11T13:26:42;12.70;99.90
22426;DHT22;11380;50.822;15.790;2022-11-11T13:31:50;12.70;1.00
22426;DHT22;11380;50.822;15.790;2022-11-11T13:36:56;12.60;99.90
22426;DHT22;11380;50.822;15.790;2022-11-11T13:42:03;12.70;1.00
22426;DHT22;11380;50.822;15.790;2022-11-11T13:47:12;12.70;1.00
22426;DHT22;11380;50.822;15.790;2022-11-11T13:52:26;12.50;99.90
22426;DHT22;11380;50.822;15.790;2022-11-11T13:57:33;12.50;1.00
22426;DHT22;11380;50.822;15.790;2022-11-11T14:02:39;12.30;99.90
22426;DHT22;11380;50.822;15.790;2022-11-11T14:07:46;12.10;99.90
22426;DHT22;11380;50.822;15.790;2022-11-11T14:13:34;12.00;1.00
22426;DHT22;11380;50.822;15.790;2022-11-11T14:18:08;11.80;1.00
22426;DHT22;11380;50.822;15.790;2022-11-11T14:23:33;11.70;1.00
22426;DHT22;11380;50.822;15.790;2022-11-11T14:34:12;11.00;99.90
22426;DHT22;11380;50.822;15.790;2022-11-11T14:39:34;11.00;1.00
22426;DHT22;11380;50.822;15.790;2022-11-11T14:44:41;10.80;99.90
22426;DHT22;11380;50.822;15.790;2022-11-11T14:49:54;10.60;1.00
22426;DHT22;11380;50.822;15.790;2022-11-11T14:55:18;10.40;1.00
22426;DHT22;11380;50.822;15.790;2022-11-11T15:00:29;10.40;1.00
22426;DHT22;11380;50.822;15.790;2022-11-11T15:05:58;10.20;1.00
22426;DHT22;11380;50.822;15.790;2022-11-11T15:11:19;10.10;1.00
22426;DHT22;11380;50.822;15.790;2022-11-11T15:32:37;9.60;1.00
22426;DHT22;11380;50.822;15.790;2022-11-11T15:37:40;9.60;1.00
22426;DHT22;11380;50.822;15.790;2022-11-11T15:42:48;9.50;1.00
22426;DHT22;11380;50.822;15.790;2022-11-11T15:47:55;9.40;1.00
22426;DHT22;11380;50.822;15.790;2022-11-11T15:53:02;9.40;1.00
22426;DHT22;11380;50.822;15.790;2022-11-11T15:58:24;9.80;99.90
22426;DHT22;11380;50.822;15.790;2022-11-11T16:03:38;9.00;1.00
22426;DHT22;11380;50.822;15.790;2022-11-11T16:08:44;8.70;1.00
22426;DHT22;11380;50.822;15.790;2022-11-11T16:13:59;8.50;1.00
22426;DHT22;11380;50.822;15.790;2022-11-11T16:19:34;8.70;1.00
22426;DHT22;11380;50.822;15.790;2022-11-11T16:24:41;8.90;99.90
22426;DHT22;11380;50.822;15.790;2022-11-11T16:29:48;9.00;99.90
22426;DHT22;11380;50.822;15.790;2022-11-11T16:34:54;8.50;99.90
22426;DHT22;11380;50.822;15.790;2022-11-11T16:40:25;8.00;1.00
22426;DHT22;11380;50.822;15.790;2022-11-11T16:45:30;7.80;1.00
22426;DHT22;11380;50.822;15.790;2022-11-11T16:50:51;7.80;1.00
22426;DHT22;11380;50.822;15.790;2022-11-11T16:55:46;8.10;99.90
22426;DHT22;11380;50.822;15.790;2022-11-11T17:00:59;8.10;99.90
22426;DHT22;11380;50.822;15.790;2022-11-11T17:06:07;7.90;99.90
22426;DHT22;11380;50.822;15.790;2022-11-11T17:16:36;7.70;1.00
22426;DHT22;11380;50.822;15.790;2022-11-11T17:21:42;6.90;1.00
22426;DHT22;11380;50.822;15.790;2022-11-11T17:26:47;7.10;1.00
22426;DHT22;11380;50.822;15.790;2022-11-11T17:31:52;6.90;1.00
22426;DHT22;11380;50.822;15.790;2022-11-11T17:36:58;6.70;1.00
22426;DHT22;11380;50.822;15.790;2022-11-11T17:42:03;6.60;1.00
22426;DHT22;11380;50.822;15.790;2022-11-11T17:47:09;6.50;1.00
22426;DHT22;11380;50.822;15.790;2022-11-11T17:52:16;6.50;1.00
22426;DHT22;11380;50.822;15.790;2022-11-11T17:57:21;6.30;1.00
22426;DHT22;11380;50.822;15.790;2022-11-11T18:02:27;5.80;1.00
22426;DHT22;11380;50.822;15.790;2022-11-11T18:07:34;5.90;1.00
22426;DHT22;11380;50.822;15.790;2022-11-11T18:12:41;6.20;1.00
22426;DHT22;11380;50.822;15.790;2022-11-11T18:17:46;5.80;1.00
22426;DHT22;11380;50.822;15.790;2022-11-11T18:22:56;6.00;1.00
22426;DHT22;11380;50.822;15.790;2022-11-11T18:28:01;5.50;1.00
22426;DHT22;11380;50.822;15.790;2022-11-11T18:33:06;5.40;1.00
22426;DHT22;11380;50.822;15.790;2022-11-11T18:38:11;5.40;1.00
22426;DHT22;11380;50.822;15.790;2022-11-11T18:43:16;5.20;1.00
22426;DHT22;11380;50.822;15.790;2022-11-11T18:48:21;4.40;1.00
22426;DHT22;11380;50.822;15.790;2022-11-11T18:53:32;4.20;1.00
22426;DHT22;11380;50.822;15.790;2022-11-11T18:58:38;4.30;1.00
22426;DHT22;11380;50.822;15.790;2022-11-11T19:03:43;4.40;1.00
22426;DHT22;11380;50.822;15.790;2022-11-11T19:08:54;4.70;1.00
22426;DHT22;11380;50.822;15.790;2022-11-11T19:14:00;4.90;1.00
22426;DHT22;11380;50.822;15.790;2022-11-11T19:19:06;4.80;1.00
22426;DHT22;11380;50.822;15.790;2022-11-11T19:24:11;4.70;1.00
22426;DHT22;11380;50.822;15.790;2022-11-11T19:29:17;4.90;1.00
22426;DHT22;11380;50.822;15.790;2022-11-11T19:34:24;4.50;1.00
22426;DHT22;11380;50.822;15.790;2022-11-11T19:39:29;4.40;1.00
22426;DHT22;11380;50.822;15.790;2022-11-11T19:44:35;4.50;1.00
22426;DHT22;11380;50.822;15.790;2022-11-11T19:49:42;4.00;1.00
22426;DHT22;11380;50.822;15.790;2022-11-11T19:54:47;3.50;1.00
22426;DHT22;11380;50.822;15.790;2022-11-11T19:59:52;3.70;1.00
22426;DHT22;11380;50.822;15.790;2022-11-11T20:04:57;3.90;1.00
22426;DHT22;11380;50.822;15.790;2022-11-11T20:10:05;4.00;1.00
22426;DHT22;11380;50.822;15.790;2022-11-11T20:15:11;4.10;1.00
22426;DHT22;11380;50.822;15.790;2022-11-11T20:20:16;4.10;1.00
22426;DHT22;11380;50.822;15.790;2022-11-11T20:25:21;4.00;1.00
22426;DHT22;11380;50.822;15.790;2022-11-11T20:30:27;4.10;1.00
22426;DHT22;11380;50.822;15.790;2022-11-11T20:35:33;3.90;1.00
22426;DHT22;11380;50.822;15.790;2022-11-11T20:40:39;3.80;1.00
22426;DHT22;11380;50.822;15.790;2022-11-11T20:45:45;4.10;1.00
22426;DHT22;11380;50.822;15.790;2022-11-11T20:50:51;3.90;1.00
22426;DHT22;11380;50.822;15.790;2022-11-11T20:56:08;3.90;1.00
22426;DHT22;11380;50.822;15.790;2022-11-11T21:01:11;3.90;1.00
22426;DHT22;11380;50.822;15.790;2022-11-11T21:06:18;3.90;1.00
22426;DHT22;11380;50.822;15.790;2022-11-11T21:11:23;3.70;1.00
22426;DHT22;11380;50.822;15.790;2022-11-11T21:16:30;3.80;1.00
22426;DHT22;11380;50.822;15.790;2022-11-11T21:21:36;3.70;1.00
22426;DHT22;11380;50.822;15.790;2022-11-11T21:26:41;3.60;1.00
22426;DHT22;11380;50.822;15.790;2022-11-11T21:31:47;3.40;1.00
22426;DHT22;11380;50.822;15.790;2022-11-11T21:36:52;3.40;1.00
22426;DHT22;11380;50.822;15.790;2022-11-11T21:41:58;3.40;1.00
22426;DHT22;11380;50.822;15.790;2022-11-11T21:47:04;3.10;1.00
22426;DHT22;11380;50.822;15.790;2022-11-11T21:52:09;2.90;1.00
22426;DHT22;11380;50.822;15.790;2022-11-11T21:57:14;3.10;1.00
22426;DHT22;11380;50.822;15.790;2022-11-11T22:02:20;3.00;1.00
22426;DHT22;11380;50.822;15.790;2022-11-11T22:07:25;3.20;1.00
22426;DHT22;11380;50.822;15.790;2022-11-11T22:12:30;3.20;1.00
22426;DHT22;11380;50.822;15.790;2022-11-11T22:17:37;3.40;1.00
22426;DHT22;11380;50.822;15.790;2022-11-11T22:22:43;3.30;1.00
22426;DHT22;11380;50.822;15.790;2022-11-11T22:27:48;3.00;1.00
22426;DHT22;11380;50.822;15.790;2022-11-11T22:32:54;2.90;1.00
22426;DHT22;11380;50.822;15.790;2022-11-11T22:37:59;2.80;1.00
22426;DHT22;11380;50.822;15.790;2022-11-11T22:43:04;2.90;1.00
22426;DHT22;11380;50.822;15.790;2022-11-11T22:48:09;3.00;1.00
22426;DHT22;11380;50.822;15.790;2022-11-11T22:53:15;3.00;1.00
22426;DHT22;11380;50.822;15.790;2022-11-11T22:58:21;3.20;1.00
22426;DHT22;11380;50.822;15.790;2022-11-11T23:03:27;3.20;1.00
22426;DHT22;11380;50.822;15.790;2022-11-11T23:08:32;3.20;1.00
22426;DHT22;11380;50.822;15.790;2022-11-11T23:13:39;3.10;1.00
22426;DHT22;11380;50.822;15.790;2022-11-11T23:18:45;2.80;1.00
22426;DHT22;11380;50.822;15.790;2022-11-11T23:23:51;2.90;1.00
22426;DHT22;11380;50.822;15.790;2022-11-11T23:28:56;3.00;1.00
22426;DHT22;11380;50.822;15.790;2022-11-11T23:34:02;2.70;1.00
22426;DHT22;11380;50.822;15.790;2022-11-11T23:39:09;2.70;1.00
22426;DHT22;11380;50.822;15.790;2022-11-11T23:44:15;2.40;1.00
22426;DHT22;11380;50.822;15.790;2022-11-11T23:49:20;2.80;1.00
22426;DHT22;11380;50.822;15.790;2022-11-11T23:54:26;2.70;1.00
22426;DHT22;11380;50.822;15.790;2022-11-11T23:59:31;2.80;1.00
